Terminal Aerodrome Forecast
Issued by NWS

Current Version | Previous Version | Graphics & Text | Print | Product List | Glossary On
Versions: 1 2 3 4 5 6 7 8 9 10 11 12 13 14 15 16 17 18 19 20 21 22 23 24 25 26
328
FTUS41 KPBZ 231724
TAFHLG
TAF
KHLG 231724Z 2318/2418 07012KT P6SM -RA SCT015 OVC025
      TEMPO 2318/2322 BKN015
     FM232200 04010KT 3SM -RA BR OVC008
     FM240400 36008KT P6SM -RASN OVC008
     FM241000 31008KT P6SM OVC015=

USA.gov is the U.S. government's official web portal to all federal, state and local government web resources and services.